Time;durP1;ratioP1;P1;durP2;ratioP2;P2;SDS_P1;SDS_P2;PMS_P1;PMS_P2;Temp;Humidity;BMP_temperature;BMP_pressure;BME280_temperature;BME280_humidity;BME280_pressure;Samples;Min_cycle;Max_cycle;Signal;HPM_P1;HPM_P2
2021/06/03 00:00:31;;;;;;;15.20;9.30;;;18.20;93.00;;;;;;5093161;28;20048;-61
2021/06/03 00:02:57;;;;;;;11.50;8.97;;;18.20;91.90;;;;;;5085027;28;20044;-61
2021/06/03 00:05:29;;;;;;;10.03;8.90;;;18.20;91.40;;;;;;5073596;27;20033;-62
2021/06/03 00:07:56;;;;;;;12.43;8.83;;;18.20;91.90;;;;;;5080755;27;20074;-61
2021/06/03 00:10:26;;;;;;;10.87;8.97;;;18.30;91.10;;;;;;5093371;27;20053;-62
2021/06/03 00:12:52;;;;;;;15.13;9.77;;;18.30;90.60;;;;;;5080119;27;20037;-62
2021/06/03 00:15:18;;;;;;;12.70;8.90;;;18.30;90.60;;;;;;5093112;28;20109;-61
2021/06/03 00:17:44;;;;;;;11.00;8.77;;;18.30;90.60;;;;;;5081402;27;20037;-61
2021/06/03 00:20:12;;;;;;;10.17;8.50;;;18.30;90.50;;;;;;5093487;28;20107;-62
2021/06/03 00:22:39;;;;;;;12.80;8.60;;;18.20;91.10;;;;;;5083429;27;20117;-62
2021/06/03 00:25:06;;;;;;;12.67;8.50;;;18.20;90.40;;;;;;5091363;28;20048;-61
2021/06/03 00:27:32;;;;;;;13.13;8.90;;;18.20;90.30;;;;;;5084977;27;20077;-61
2021/06/03 00:29:57;;;;;;;12.73;9.07;;;18.20;90.70;;;;;;5088561;27;20053;-62
2021/06/03 00:32:23;;;;;;;10.33;8.73;;;18.20;90.10;;;;;;5088789;27;20084;-61
2021/06/03 00:34:49;;;;;;;11.40;8.17;;;18.10;90.80;;;;;;5080466;27;20040;-62
2021/06/03 00:37:14;;;;;;;11.33;8.77;;;18.10;90.70;;;;;;5075534;27;20021;-62
2021/06/03 00:39:40;;;;;;;12.00;8.87;;;18.20;90.20;;;;;;5083087;27;20044;-61
2021/06/03 00:42:06;;;;;;;11.60;8.27;;;18.10;90.10;;;;;;5073890;27;20038;-61
2021/06/03 00:44:32;;;;;;;9.60;8.13;;;18.10;90.30;;;;;;5080796;27;20056;-61
2021/06/03 00:46:58;;;;;;;11.23;8.37;;;18.10;88.70;;;;;;5092068;28;20033;-61
2021/06/03 00:49:24;;;;;;;16.13;8.43;;;18.10;88.20;;;;;;5076852;27;20029;-60
2021/06/03 00:51:49;;;;;;;9.30;8.30;;;18.10;87.60;;;;;;5141895;27;20045;-61
2021/06/03 00:54:15;;;;;;;12.00;7.80;;;18.10;86.70;;;;;;5078773;27;20069;-62
2021/06/03 00:56:41;;;;;;;8.47;7.57;;;18.10;85.80;;;;;;5093054;28;20039;-61
2021/06/03 00:59:07;;;;;;;12.07;7.83;;;18.10;86.40;;;;;;5086791;28;20076;-62
2021/06/03 01:01:33;;;;;;;11.23;7.87;;;18.00;86.30;;;;;;5073423;27;20029;-61
2021/06/03 01:03:59;;;;;;;10.13;7.80;;;18.00;86.90;;;;;;5142575;27;20270;-61
2021/06/03 01:06:26;;;;;;;10.60;7.93;;;18.00;86.70;;;;;;5090057;28;20036;-61
2021/06/03 01:09:11;;;;;;;8.53;7.30;;;17.90;83.90;;;;;;5085367;27;20039;-61
2021/06/03 01:11:48;;;;;;;9.43;7.57;;;18.00;81.90;;;;;;5090676;28;20053;-61
2021/06/03 01:14:24;;;;;;;8.50;7.60;;;18.00;80.60;;;;;;5083457;27;20049;-61
2021/06/03 01:16:53;;;;;;;7.93;7.07;;;18.00;79.50;;;;;;5090624;27;20058;-61
2021/06/03 01:19:31;;;;;;;9.23;6.80;;;18.00;79.00;;;;;;5083883;27;20062;-61
2021/06/03 01:22:18;;;;;;;8.83;7.17;;;18.00;77.80;;;;;;5073045;27;20046;-59
2021/06/03 01:24:52;;;;;;;12.80;7.77;;;18.00;77.70;;;;;;5086968;27;20055;-62
2021/06/03 01:27:21;;;;;;;9.55;6.95;;;18.00;77.70;;;;;;5074298;27;20040;-60
2021/06/03 01:30:06;;;;;;;8.30;7.50;;;17.90;78.00;;;;;;5081272;27;20060;-61
2021/06/03 01:32:35;;;;;;;9.47;6.83;;;17.90;78.20;;;;;;5072935;27;20048;-61
2021/06/03 01:35:01;;;;;;;14.37;7.30;;;17.90;78.60;;;;;;5076987;27;20159;-61
2021/06/03 01:37:27;;;;;;;11.13;7.03;;;17.80;78.60;;;;;;5089983;28;20033;-59
2021/06/03 01:39:53;;;;;;;11.83;7.43;;;17.70;78.80;;;;;;5084913;27;20029;-61
2021/06/03 01:42:20;;;;;;;11.10;7.60;;;17.70;79.40;;;;;;5159410;27;20055;-62
2021/06/03 01:44:48;;;;;;;10.83;7.53;;;17.70;79.00;;;;;;5135124;27;20032;-60
2021/06/03 01:47:14;;;;;;;11.60;7.03;;;17.70;79.20;;;;;;5162303;27;20111;-61
2021/06/03 01:49:42;;;;;;;10.40;7.17;;;17.60;78.60;;;;;;5090832;27;20044;-62
2021/06/03 01:52:09;;;;;;;12.50;7.30;;;17.60;78.70;;;;;;5092869;27;20040;-61
2021/06/03 01:54:35;;;;;;;11.43;7.40;;;17.60;78.30;;;;;;5090809;27;20048;-62
2021/06/03 01:57:03;;;;;;;7.80;7.10;;;17.60;78.50;;;;;;5084393;27;20101;-60
2021/06/03 01:59:29;;;;;;;8.10;7.30;;;17.60;78.70;;;;;;5073321;27;20029;-61
2021/06/03 02:01:54;;;;;;;9.03;7.37;;;17.50;78.70;;;;;;5082717;27;20025;-61
2021/06/03 02:04:20;;;;;;;12.30;7.30;;;17.50;78.60;;;;;;5071975;27;20029;-60
2021/06/03 02:06:46;;;;;;;10.93;7.30;;;17.40;79.10;;;;;;5079914;28;20104;-61
2021/06/03 02:09:13;;;;;;;9.77;6.97;;;17.40;79.70;;;;;;5092189;28;20037;-61
2021/06/03 02:11:44;;;;;;;9.80;7.03;;;17.40;79.90;;;;;;5078936;27;20032;-62
2021/06/03 02:14:13;;;;;;;11.17;7.60;;;17.40;80.30;;;;;;5092087;27;20080;-62
2021/06/03 02:16:48;;;;;;;8.77;7.87;;;17.30;80.40;;;;;;5079677;27;20141;-60
2021/06/03 02:19:21;;;;;;;11.53;7.63;;;17.30;81.10;;;;;;5071896;28;20032;-61
2021/06/03 02:21:49;;;;;;;7.63;6.83;;;17.30;81.40;;;;;;5085465;27;20052;-61
2021/06/03 02:24:15;;;;;;;8.87;7.67;;;17.30;81.10;;;;;;5072686;27;20029;-62
2021/06/03 02:26:42;;;;;;;11.77;7.20;;;17.20;81.60;;;;;;5075392;27;20044;-61
2021/06/03 02:29:09;;;;;;;9.73;6.50;;;17.30;81.70;;;;;;5088732;28;20036;-62
2021/06/03 02:31:36;;;;;;;9.03;6.90;;;17.20;82.40;;;;;;5083168;27;20037;-60
2021/06/03 02:34:03;;;;;;;9.20;7.77;;;17.20;82.70;;;;;;5086357;28;20035;-62
2021/06/03 02:36:30;;;;;;;8.70;7.50;;;17.20;82.70;;;;;;5091325;27;20039;-61
2021/06/03 02:38:56;;;;;;;8.33;7.33;;;17.10;83.00;;;;;;5091348;27;20056;-61
2021/06/03 02:41:22;;;;;;;9.43;7.63;;;17.10;82.80;;;;;;5158884;27;20044;-61
2021/06/03 02:43:49;;;;;;;11.93;7.27;;;17.10;83.00;;;;;;5081572;27;20048;-61
2021/06/03 02:46:17;;;;;;;10.33;7.30;;;17.10;83.40;;;;;;5088738;27;20032;-60
2021/06/03 02:48:44;;;;;;;11.57;7.60;;;17.00;83.90;;;;;;5090483;28;20032;-61
2021/06/03 02:51:10;;;;;;;8.60;7.40;;;17.00;84.70;;;;;;5091040;28;20048;-62
2021/06/03 02:53:37;;;;;;;8.90;7.43;;;16.90;84.60;;;;;;5082184;28;20040;-61
2021/06/03 02:56:04;;;;;;;8.83;7.47;;;16.90;84.40;;;;;;5140640;27;20036;-62
2021/06/03 02:58:29;;;;;;;9.03;7.50;;;16.90;84.90;;;;;;5078190;27;20055;-61
2021/06/03 03:00:55;;;;;;;8.17;7.10;;;16.90;85.10;;;;;;5161602;27;20024;-59
2021/06/03 03:03:21;;;;;;;10.40;7.53;;;16.80;85.40;;;;;;5086225;27;20040;-61
2021/06/03 03:05:47;;;;;;;9.70;7.43;;;16.80;85.90;;;;;;5070836;27;20029;-61
2021/06/03 03:08:12;;;;;;;10.07;6.80;;;16.80;86.30;;;;;;5071499;27;20045;-61
2021/06/03 03:10:41;;;;;;;10.07;6.80;;;16.80;85.90;;;;;;5089029;28;20041;-60
2021/06/03 03:13:08;;;;;;;9.10;7.03;;;16.80;85.90;;;;;;5081920;27;20088;-61
2021/06/03 03:15:35;;;;;;;7.73;6.93;;;16.90;85.50;;;;;;5086742;28;20033;-61
2021/06/03 03:18:01;;;;;;;9.10;6.90;;;16.80;85.00;;;;;;5084457;27;20090;-61
2021/06/03 03:20:29;;;;;;;10.43;6.60;;;16.90;84.80;;;;;;5084155;27;20039;-61
2021/06/03 03:22:56;;;;;;;11.57;7.27;;;17.00;84.50;;;;;;5086695;27;20074;-61
2021/06/03 03:25:23;;;;;;;10.40;7.20;;;16.90;84.50;;;;;;5080048;27;20048;-61
2021/06/03 03:27:50;;;;;;;11.70;7.30;;;16.90;84.20;;;;;;5076518;27;20110;-61
2021/06/03 03:30:17;;;;;;;8.93;6.80;;;16.90;85.20;;;;;;5080101;27;20077;-61
2021/06/03 03:32:45;;;;;;;9.53;7.07;;;16.90;84.70;;;;;;5089328;27;20049;-60
2021/06/03 03:35:12;;;;;;;8.40;6.63;;;16.90;85.20;;;;;;5091413;28;20043;-60
2021/06/03 03:37:39;;;;;;;8.27;7.20;;;16.90;85.30;;;;;;5090140;28;20041;-62
2021/06/03 03:40:14;;;;;;;11.43;7.63;;;16.80;85.50;;;;;;5074778;27;20056;-62
2021/06/03 03:42:40;;;;;;;8.00;7.00;;;16.90;85.20;;;;;;5072236;27;20055;-61
2021/06/03 03:45:09;;;;;;;11.10;7.57;;;16.90;85.00;;;;;;5081860;28;20060;-61
2021/06/03 03:47:35;;;;;;;11.00;7.17;;;17.00;84.90;;;;;;5093770;27;20048;-61
2021/06/03 03:50:00;;;;;;;14.87;7.70;;;17.00;85.20;;;;;;5079829;27;20043;-61
2021/06/03 03:52:30;;;;;;;11.43;7.23;;;17.10;85.40;;;;;;5074260;27;20116;-61
2021/06/03 03:54:55;;;;;;;14.63;7.10;;;17.10;85.60;;;;;;5078505;27;20029;-61
2021/06/03 03:57:23;;;;;;;11.40;6.93;;;17.10;85.20;;;;;;5093308;28;20029;-61
2021/06/03 03:59:50;;;;;;;7.83;6.70;;;17.10;84.90;;;;;;5084510;27;20094;-61
2021/06/03 04:02:16;;;;;;;8.60;7.00;;;17.20;84.30;;;;;;5091432;27;20035;-62
2021/06/03 04:04:42;;;;;;;10.87;6.77;;;17.20;84.30;;;;;;5086806;28;20036;-61
2021/06/03 04:07:12;;;;;;;9.93;7.07;;;17.20;84.90;;;;;;5089421;28;20060;-61
2021/06/03 04:09:38;;;;;;;7.07;6.37;;;17.20;86.10;;;;;;5092484;28;20092;-60
2021/06/03 04:12:04;;;;;;;9.73;6.77;;;17.30;85.50;;;;;;5080941;27;20044;-60
2021/06/03 04:14:30;;;;;;;11.77;6.77;;;17.30;85.30;;;;;;5075900;27;20048;-61
2021/06/03 04:16:55;;;;;;;9.57;7.00;;;17.30;85.30;;;;;;5083452;27;20037;-61
2021/06/03 04:19:21;;;;;;;12.57;7.80;;;17.30;84.50;;;;;;5076411;27;20055;-62
2021/06/03 04:21:47;;;;;;;14.07;8.90;;;17.30;85.40;;;;;;5082310;27;20036;-61
2021/06/03 04:24:12;;;;;;;11.20;9.10;;;17.30;86.30;;;;;;5092244;28;20069;-62
2021/06/03 04:26:38;;;;;;;10.57;8.47;;;17.40;86.80;;;;;;5082095;27;20108;-61
2021/06/03 04:29:04;;;;;;;10.37;7.83;;;17.30;87.70;;;;;;5092818;28;20063;-61
2021/06/03 04:31:31;;;;;;;12.10;9.20;;;17.40;87.00;;;;;;5080575;27;20025;-61
2021/06/03 04:33:56;;;;;;;11.67;7.60;;;17.40;87.30;;;;;;5093207;27;20032;-62
2021/06/03 04:36:22;;;;;;;11.33;8.10;;;17.40;86.80;;;;;;5080743;27;20032;-62
2021/06/03 04:38:48;;;;;;;10.33;8.53;;;17.40;86.10;;;;;;5093217;28;20048;-62
2021/06/03 04:41:15;;;;;;;10.80;7.20;;;17.50;85.50;;;;;;5082588;27;20033;-63
2021/06/03 04:43:42;;;;;;;9.00;7.47;;;17.50;85.60;;;;;;5090083;28;20048;-62
2021/06/03 04:46:09;;;;;;;10.40;7.00;;;17.50;85.50;;;;;;5077204;27;20073;-67
2021/06/03 04:48:35;;;;;;;10.13;7.20;;;17.60;84.90;;;;;;5071911;28;20108;-67
2021/06/03 04:51:01;;;;;;;9.03;6.63;;;17.80;84.00;;;;;;5071027;27;20065;-66
2021/06/03 04:53:27;;;;;;;9.37;6.10;;;17.90;83.90;;;;;;5140632;27;20114;-66
2021/06/03 04:55:53;;;;;;;15.67;7.13;;;18.00;83.80;;;;;;5123341;27;20189;-68
2021/06/03 04:58:18;;;;;;;12.67;6.77;;;18.10;83.80;;;;;;5063822;27;20060;-64
2021/06/03 05:00:44;;;;;;;10.80;7.20;;;18.10;83.80;;;;;;5055304;27;20045;-66
2021/06/03 05:03:12;;;;;;;8.73;6.90;;;18.30;83.40;;;;;;5065561;27;20044;-67
2021/06/03 05:05:38;;;;;;;7.80;6.60;;;18.30;83.70;;;;;;5056255;27;20041;-67
2021/06/03 05:08:04;;;;;;;12.20;6.83;;;18.50;82.90;;;;;;5085250;27;20045;-68
2021/06/03 05:10:30;;;;;;;7.77;6.97;;;18.60;81.20;;;;;;5157921;27;20099;-67
2021/06/03 05:12:57;;;;;;;13.37;7.50;;;18.60;82.20;;;;;;5059383;27;20072;-67
2021/06/03 05:15:23;;;;;;;10.50;7.07;;;18.70;82.10;;;;;;5051466;27;20048;-67
2021/06/03 05:17:54;;;;;;;16.50;8.47;;;18.70;82.50;;;;;;5124005;27;20051;-64
2021/06/03 05:20:22;;;;;;;15.97;8.07;;;18.80;82.60;;;;;;5049395;27;20354;-65
2021/06/03 05:22:50;;;;;;;23.57;8.37;;;18.80;82.70;;;;;;5060921;27;20048;-65
2021/06/03 05:25:18;;;;;;;14.67;8.00;;;19.00;82.60;;;;;;5050255;27;20478;-67
2021/06/03 05:27:44;;;;;;;13.57;7.40;;;19.00;81.40;;;;;;5118369;27;20069;-66
2021/06/03 05:30:12;;;;;;;17.37;7.30;;;19.00;82.00;;;;;;5083331;27;20080;-65
2021/06/03 05:32:38;;;;;;;11.80;7.30;;;19.10;81.80;;;;;;5069074;27;20052;-67
2021/06/03 05:35:08;;;;;;;15.43;7.37;;;19.10;81.40;;;;;;5055426;27;20185;-66
2021/06/03 05:37:34;;;;;;;13.23;7.63;;;19.20;80.90;;;;;;5060108;27;20037;-66
2021/06/03 05:40:00;;;;;;;11.27;7.17;;;19.20;80.60;;;;;;5062371;28;20059;-65
2021/06/03 05:42:26;;;;;;;10.47;7.07;;;19.30;80.00;;;;;;5066887;27;20045;-65
2021/06/03 05:44:52;;;;;;;12.20;7.20;;;19.30;80.30;;;;;;5058789;28;20045;-65
2021/06/03 05:47:18;;;;;;;14.60;6.77;;;19.40;80.70;;;;;;5062393;27;20041;-64
2021/06/03 05:49:44;;;;;;;8.67;7.07;;;19.70;79.00;;;;;;5065669;27;20060;-65
2021/06/03 05:52:10;;;;;;;11.23;7.23;;;19.80;78.70;;;;;;5049961;28;20395;-65
2021/06/03 05:54:35;;;;;;;9.13;7.23;;;19.80;78.40;;;;;;5059461;28;20465;-65
2021/06/03 05:57:01;;;;;;;16.60;7.73;;;19.90;77.90;;;;;;5048432;27;20056;-65
2021/06/03 05:59:28;;;;;;;10.17;6.93;;;19.90;78.20;;;;;;5061096;27;20044;-65
2021/06/03 06:02:04;;;;;;;13.37;7.17;;;19.90;79.10;;;;;;5048129;27;20044;-65
2021/06/03 06:07:01;;;;;;;11.03;6.90;;;20.00;78.30;;;;;;5048466;27;20423;-65
2021/06/03 06:09:27;;;;;;;18.43;7.00;;;20.00;77.50;;;;;;5061056;27;20089;-65
2021/06/03 06:11:53;;;;;;;11.10;6.57;;;20.00;76.90;;;;;;5048333;27;20045;-65
2021/06/03 06:14:18;;;;;;;9.23;6.73;;;20.10;74.10;;;;;;5048222;27;20094;-65
2021/06/03 06:16:44;;;;;;;8.77;6.20;;;20.10;75.70;;;;;;5064845;28;20045;-65
2021/06/03 06:19:10;;;;;;;7.67;6.57;;;20.20;75.30;;;;;;5060609;27;20041;-67
2021/06/03 06:21:52;;;;;;;9.47;7.10;;;20.10;75.00;;;;;;5135362;27;20043;-69
2021/06/03 06:24:18;;;;;;;9.63;7.33;;;20.20;74.40;;;;;;5096769;27;20144;-64
2021/06/03 06:26:44;;;;;;;11.17;6.60;;;20.30;74.80;;;;;;5047217;27;20089;-65
2021/06/03 06:29:10;;;;;;;10.30;6.67;;;20.30;74.30;;;;;;5052320;27;20048;-63
2021/06/03 06:31:39;;;;;;;9.30;7.57;;;20.40;74.00;;;;;;5059767;27;20040;-66
2021/06/03 06:34:04;;;;;;;12.07;6.97;;;20.50;73.40;;;;;;5065441;27;20099;-66
2021/06/03 06:36:30;;;;;;;11.33;8.90;;;20.50;73.30;;;;;;5056788;28;20052;-65
2021/06/03 06:38:56;;;;;;;8.03;7.00;;;20.50;73.90;;;;;;5067087;27;20044;-65
2021/06/03 06:41:22;;;;;;;11.17;6.83;;;20.60;73.60;;;;;;5058494;27;20416;-63
2021/06/03 06:43:47;;;;;;;11.40;7.13;;;20.50;74.20;;;;;;5048397;28;20098;-65
2021/06/03 06:46:13;;;;;;;15.13;7.90;;;20.60;74.60;;;;;;5055521;28;20415;-65
2021/06/03 06:48:39;;;;;;;9.27;7.23;;;20.60;74.20;;;;;;5067571;28;20484;-65
2021/06/03 06:51:05;;;;;;;9.57;7.13;;;20.70;74.60;;;;;;5071822;27;20053;-62
2021/06/03 06:53:31;;;;;;;16.17;7.90;;;20.80;74.40;;;;;;5091241;27;20104;-62
2021/06/03 06:55:58;;;;;;;10.93;7.37;;;20.80;74.30;;;;;;5147839;27;20108;-63
2021/06/03 06:58:24;;;;;;;9.87;7.87;;;20.90;73.70;;;;;;5090140;28;20054;-63
2021/06/03 07:00:50;;;;;;;10.30;7.40;;;20.90;72.40;;;;;;5081453;27;20029;-62
2021/06/03 07:03:16;;;;;;;11.00;7.27;;;20.90;73.30;;;;;;5087778;28;20024;-63
2021/06/03 07:05:45;;;;;;;10.53;7.90;;;21.00;72.30;;;;;;5083749;27;20035;-63
2021/06/03 07:08:11;;;;;;;8.67;7.40;;;21.10;72.50;;;;;;5085859;28;20043;-62
2021/06/03 07:10:37;;;;;;;11.00;7.97;;;21.00;73.70;;;;;;5089268;28;20041;-62
2021/06/03 07:13:03;;;;;;;16.23;8.07;;;21.00;73.90;;;;;;5078499;27;20065;-62
2021/06/03 07:15:29;;;;;;;20.50;8.00;;;20.90;74.50;;;;;;5072691;27;20040;-62
2021/06/03 07:17:55;;;;;;;9.83;8.17;;;21.00;74.90;;;;;;5082089;27;20073;-63
2021/06/03 07:20:22;;;;;;;9.30;8.30;;;21.00;74.70;;;;;;5075557;27;20077;-62
2021/06/03 07:22:53;;;;;;;12.57;8.10;;;21.00;74.20;;;;;;5085489;27;20029;-62
2021/06/03 07:25:23;;;;;;;9.77;8.80;;;21.10;74.30;;;;;;5075426;27;20041;-62
2021/06/03 07:27:50;;;;;;;11.33;8.20;;;21.00;74.80;;;;;;5085327;27;20053;-63
2021/06/03 07:30:18;;;;;;;12.90;8.00;;;21.10;75.00;;;;;;5050704;27;20398;-63
2021/06/03 07:33:04;;;;;;;9.33;7.37;;;21.00;75.00;;;;;;5059759;27;20052;-62
2021/06/03 07:35:32;;;;;;;13.80;8.20;;;21.20;75.00;;;;;;5050302;28;20045;-61
2021/06/03 07:37:57;;;;;;;14.67;7.90;;;21.30;74.20;;;;;;5061406;28;20041;-62
2021/06/03 07:40:27;;;;;;;11.37;7.60;;;21.40;74.50;;;;;;5050058;27;20045;-60
2021/06/03 07:42:53;;;;;;;12.83;7.70;;;21.30;74.70;;;;;;5071175;27;20124;-61
2021/06/03 07:45:22;;;;;;;10.47;7.33;;;21.50;74.60;;;;;;5050014;27;20080;-61
2021/06/03 07:47:49;;;;;;;12.10;7.27;;;21.70;74.20;;;;;;5120635;27;20048;-63
2021/06/03 07:50:16;;;;;;;16.07;7.70;;;21.90;73.90;;;;;;5070067;27;20408;-64
2021/06/03 07:52:42;;;;;;;12.87;7.57;;;22.10;73.60;;;;;;5067758;27;20051;-61
2021/06/03 07:55:12;;;;;;;10.50;7.73;;;22.30;72.90;;;;;;5070211;28;20444;-62
2021/06/03 07:57:38;;;;;;;11.20;7.73;;;22.60;72.20;;;;;;5060858;27;20037;-63
2021/06/03 08:00:08;;;;;;;12.40;7.27;;;22.80;71.70;;;;;;5135653;27;20046;-62
2021/06/03 08:02:34;;;;;;;10.57;7.53;;;22.70;70.50;;;;;;5103982;27;20044;-61
2021/06/03 08:05:00;;;;;;;8.47;7.50;;;22.70;71.80;;;;;;5054930;27;20048;-62
2021/06/03 08:07:26;;;;;;;8.73;7.77;;;22.50;71.70;;;;;;5050180;27;20044;-61
2021/06/03 08:09:52;;;;;;;10.03;7.40;;;22.50;71.20;;;;;;5135513;27;20398;-60
2021/06/03 08:12:17;;;;;;;11.67;8.00;;;22.50;71.20;;;;;;5125656;27;20037;-58
2021/06/03 08:14:43;;;;;;;8.93;7.73;;;22.40;71.40;;;;;;5059893;28;20150;-59
2021/06/03 08:17:29;;;;;;;10.10;8.40;;;22.50;71.20;;;;;;5107755;27;20045;-61
2021/06/03 08:19:54;;;;;;;11.30;8.20;;;22.40;72.40;;;;;;5064402;27;20089;-61
2021/06/03 08:22:20;;;;;;;9.50;8.23;;;22.40;72.60;;;;;;5050056;27;20045;-61
2021/06/03 08:24:49;;;;;;;11.87;9.00;;;22.70;72.10;;;;;;5060030;27;20064;-59
2021/06/03 08:27:15;;;;;;;9.20;8.30;;;22.70;70.70;;;;;;5049464;27;20148;-62
2021/06/03 08:29:40;;;;;;;11.93;8.50;;;22.80;70.30;;;;;;5059190;27;20041;-63
2021/06/03 08:32:07;;;;;;;15.33;13.20;;;23.10;70.00;;;;;;5048794;27;20041;-60
2021/06/03 08:34:52;;;;;;;12.20;9.67;;;23.30;68.20;;;;;;5049520;27;20203;-61
2021/06/03 08:37:38;;;;;;;12.47;11.03;;;23.50;68.70;;;;;;5047861;28;20569;-60
2021/06/03 08:40:04;;;;;;;11.50;10.20;;;23.70;67.90;;;;;;5057170;27;20042;-61
2021/06/03 08:42:30;;;;;;;11.23;8.57;;;23.80;67.50;;;;;;5068566;28;20045;-62
2021/06/03 08:44:56;;;;;;;9.13;8.10;;;24.00;66.40;;;;;;5060554;28;20049;-61
2021/06/03 08:47:21;;;;;;;10.63;7.80;;;23.80;66.70;;;;;;5049355;28;20084;-60
2021/06/03 08:49:47;;;;;;;13.40;8.33;;;23.90;66.80;;;;;;5059818;27;20123;-59
2021/06/03 08:52:13;;;;;;;11.33;8.17;;;23.80;66.60;;;;;;5049315;27;20041;-60
2021/06/03 08:54:40;;;;;;;8.50;7.63;;;23.80;66.30;;;;;;5127393;27;20404;-62
2021/06/03 08:57:08;;;;;;;9.10;8.13;;;23.70;67.00;;;;;;5051786;27;20390;-60
2021/06/03 08:59:34;;;;;;;8.87;7.60;;;23.80;67.10;;;;;;5050099;27;20443;-60
2021/06/03 09:02:00;;;;;;;10.07;7.87;;;23.90;66.80;;;;;;5064496;27;20063;-60
2021/06/03 09:04:26;;;;;;;13.20;8.50;;;23.90;65.10;;;;;;5063611;28;20042;-60
2021/06/03 09:06:51;;;;;;;8.50;7.60;;;24.10;65.40;;;;;;5061436;28;20127;-62
2021/06/03 09:09:28;;;;;;;9.30;7.67;;;24.00;65.40;;;;;;5066347;28;20048;-62
2021/06/03 09:12:18;;;;;;;9.83;8.03;;;24.10;65.00;;;;;;5060222;27;20041;-62
2021/06/03 09:14:44;;;;;;;9.60;7.20;;;24.00;65.50;;;;;;5133234;27;20037;-62
2021/06/03 09:17:10;;;;;;;9.57;7.10;;;24.10;65.80;;;;;;5056152;28;20041;-61
2021/06/03 09:19:54;;;;;;;10.47;7.53;;;24.20;65.40;;;;;;5064166;28;20055;-61
2021/06/03 09:22:37;;;;;;;12.82;7.82;;;24.30;65.10;;;;;;5056843;27;20045;-61
2021/06/03 09:25:28;;;;;;;9.98;7.93;;;24.30;64.80;;;;;;5119077;27;20041;-62
2021/06/03 09:27:54;;;;;;;12.43;8.00;;;24.30;64.50;;;;;;5064040;27;20045;-61
2021/06/03 09:30:19;;;;;;;12.17;7.80;;;24.30;64.70;;;;;;5132424;27;20048;-62
2021/06/03 09:32:54;;;;;;;10.77;7.77;;;24.30;65.00;;;;;;5061374;28;20044;-62
2021/06/03 09:35:21;;;;;;;8.40;7.50;;;24.50;64.50;;;;;;5064292;27;20045;-62
2021/06/03 09:37:46;;;;;;;10.13;8.20;;;24.50;64.30;;;;;;5059713;27;20048;-62
2021/06/03 09:40:22;;;;;;;12.33;8.43;;;24.40;64.40;;;;;;5064094;27;20401;-62
2021/06/03 09:43:07;;;;;;;8.73;7.60;;;24.50;63.90;;;;;;5058579;28;20144;-64
2021/06/03 09:46:00;;;;;;;11.13;8.00;;;24.60;63.00;;;;;;5070379;27;20400;-61
2021/06/03 09:48:44;;;;;;;11.20;7.40;;;24.70;63.60;;;;;;5093539;27;20048;-62
2021/06/03 09:51:17;;;;;;;;;;;24.70;62.80;;;;;;5062136;27;20037;-62
2021/06/03 09:54:01;;;;;;;12.67;8.40;;;24.80;62.00;;;;;;5126932;27;19920;-62
2021/06/03 09:56:30;;;;;;;8.10;7.17;;;24.80;62.50;;;;;;5099167;27;20078;-62
2021/06/03 09:58:56;;;;;;;11.70;7.00;;;25.20;60.60;;;;;;5052296;27;20405;-62
2021/06/03 10:01:46;;;;;;;9.23;6.60;;;25.30;60.80;;;;;;5051220;27;20093;-62
2021/06/03 10:04:15;;;;;;;11.73;7.27;;;25.40;61.10;;;;;;5133512;27;20139;-63
2021/06/03 10:06:59;;;;;;;8.30;7.00;;;25.50;61.00;;;;;;5101527;27;20068;-63
2021/06/03 10:09:55;;;;;;;9.43;7.30;;;25.60;60.10;;;;;;5063999;27;20048;-63
2021/06/03 10:12:24;;;;;;;8.53;6.40;;;25.80;60.30;;;;;;5062927;28;20041;-62
2021/06/03 10:14:54;;;;;;;8.43;5.63;;;25.80;59.20;;;;;;5049128;27;20073;-62
2021/06/03 10:17:24;;;;;;;8.90;5.83;;;26.00;58.20;;;;;;5055759;27;20050;-61
2021/06/03 10:19:52;;;;;;;5.70;4.73;;;26.10;57.10;;;;;;5118482;27;20389;-62
2021/06/03 10:22:24;;;;;;;8.27;4.30;;;26.10;55.80;;;;;;5053935;28;20044;-62
2021/06/03 10:25:05;;;;;;;7.27;4.33;;;26.30;55.10;;;;;;5051542;27;20060;-62
2021/06/03 10:27:35;;;;;;;6.40;4.40;;;26.30;55.10;;;;;;5054189;27;20056;-62
2021/06/03 10:30:09;;;;;;;5.60;4.40;;;26.50;54.50;;;;;;5051509;27;20092;-62
2021/06/03 10:32:37;;;;;;;6.50;4.33;;;26.50;54.70;;;;;;5053783;27;20044;-60
2021/06/03 10:35:08;;;;;;;7.57;4.80;;;26.40;54.60;;;;;;5052359;27;20739;-60
2021/06/03 10:37:34;;;;;;;6.53;4.07;;;26.30;54.20;;;;;;5067866;27;20411;-60
2021/06/03 10:40:01;;;;;;;6.53;4.70;;;26.50;54.80;;;;;;5097315;27;20047;-61
2021/06/03 10:42:26;;;;;;;9.10;4.90;;;26.60;55.20;;;;;;5063774;27;20046;-61
2021/06/03 10:44:52;;;;;;;6.27;5.17;;;26.70;55.10;;;;;;5057109;27;20120;-61
2021/06/03 10:47:19;;;;;;;8.40;5.50;;;26.90;55.80;;;;;;5065862;28;20164;-62
2021/06/03 10:49:46;;;;;;;8.47;5.20;;;26.90;55.40;;;;;;5059102;27;20086;-61
2021/06/03 10:52:15;;;;;;;11.03;5.80;;;26.80;57.40;;;;;;5047004;27;20056;-62
2021/06/03 10:54:44;;;;;;;8.43;5.93;;;26.60;57.40;;;;;;5057766;27;20125;-61
2021/06/03 10:57:13;;;;;;;10.73;5.60;;;26.60;57.80;;;;;;5047082;27;20116;-61
2021/06/03 10:59:40;;;;;;;8.33;5.60;;;26.50;57.50;;;;;;5054380;27;20552;-62
2021/06/03 11:02:07;;;;;;;9.47;5.57;;;26.50;57.50;;;;;;5067028;28;20123;-62
2021/06/03 11:04:35;;;;;;;9.23;5.47;;;26.50;57.70;;;;;;5054271;27;20057;-61
2021/06/03 11:07:01;;;;;;;9.60;6.17;;;26.50;58.00;;;;;;5067013;27;20045;-62
2021/06/03 11:09:32;;;;;;;10.23;5.83;;;26.40;57.50;;;;;;5054098;27;20083;-61
2021/06/03 11:12:16;;;;;;;4.87;3.97;;;26.50;57.70;;;;;;5054896;27;20437;-62
2021/06/03 11:15:06;;;;;;;6.07;3.90;;;26.30;55.20;;;;;;5057509;27;20131;-62
2021/06/03 11:17:56;;;;;;;5.73;5.00;;;26.30;55.20;;;;;;5069550;27;20038;-62
2021/06/03 11:20:54;;;;;;;7.87;4.80;;;26.50;57.80;;;;;;5054511;27;20049;-61
2021/06/03 11:23:35;;;;;;;8.70;5.40;;;26.40;57.80;;;;;;5065058;27;20457;-61
2021/06/03 11:26:01;;;;;;;8.23;4.97;;;26.40;57.30;;;;;;5055544;27;20048;-62
2021/06/03 11:28:27;;;;;;;10.17;5.50;;;26.30;56.60;;;;;;5065009;27;20052;-62
2021/06/03 11:30:53;;;;;;;9.43;5.97;;;26.40;56.20;;;;;;5066982;27;20037;-62
2021/06/03 11:33:19;;;;;;;7.73;6.10;;;26.40;56.70;;;;;;5053243;27;20404;-62
2021/06/03 11:35:45;;;;;;;8.50;6.30;;;26.40;57.00;;;;;;5053216;27;20041;-61
2021/06/03 11:38:11;;;;;;;8.47;6.00;;;26.40;57.10;;;;;;5066005;28;20060;-61
2021/06/03 11:40:43;;;;;;;7.07;6.37;;;26.40;58.30;;;;;;5052660;27;20045;-62
2021/06/03 11:43:11;;;;;;;8.27;6.07;;;26.30;57.20;;;;;;5066019;28;20041;-62
2021/06/03 11:45:40;;;;;;;7.80;5.67;;;26.20;57.40;;;;;;5060682;27;20051;-62
2021/06/03 11:48:11;;;;;;;10.27;5.60;;;26.40;56.70;;;;;;5044970;27;20041;-62
2021/06/03 11:50:44;;;;;;;7.53;6.03;;;26.30;55.70;;;;;;5050144;27;20056;-61
2021/06/03 11:53:13;;;;;;;7.93;5.63;;;26.60;55.70;;;;;;5144350;27;20062;-62
2021/06/03 11:55:50;;;;;;;7.47;5.00;;;26.60;55.60;;;;;;5105983;27;20041;-61
2021/06/03 11:58:21;;;;;;;7.37;6.20;;;26.60;55.70;;;;;;5046105;27;20067;-62
2021/06/03 12:01:05;;;;;;;8.80;6.10;;;26.80;55.60;;;;;;5054484;27;20093;-62
2021/06/03 12:03:38;;;;;;;8.45;5.03;;;27.10;55.20;;;;;;5047772;28;20045;-62
2021/06/03 12:06:16;;;;;;;7.18;4.82;;;27.30;54.30;;;;;;5127882;27;20146;-63
2021/06/03 12:08:47;;;;;;;6.73;5.20;;;27.40;54.10;;;;;;5049967;27;20676;-63
2021/06/03 12:11:22;;;;;;;8.97;5.90;;;27.60;54.30;;;;;;5094814;27;20066;-62
2021/06/03 12:14:11;;;;;;;7.50;5.93;;;27.60;53.20;;;;;;5053932;27;20083;-62
2021/06/03 12:16:43;;;;;;;7.80;5.50;;;27.40;53.60;;;;;;5054525;27;20045;-63
2021/06/03 12:19:20;;;;;;;8.80;5.43;;;27.40;53.90;;;;;;5049258;27;20045;-61
2021/06/03 12:21:52;;;;;;;6.93;4.90;;;27.40;53.50;;;;;;5060218;27;20047;-62
2021/06/03 12:24:29;;;;;;;9.00;5.20;;;27.40;52.50;;;;;;5049137;27;20045;-62
2021/06/03 12:26:55;;;;;;;8.57;4.60;;;27.50;53.10;;;;;;5053575;27;20097;-62
2021/06/03 12:29:27;;;;;;;6.13;4.57;;;27.60;53.50;;;;;;5067892;27;20429;-62
2021/06/03 12:31:53;;;;;;;7.40;4.40;;;27.50;53.20;;;;;;5059478;27;20041;-61
2021/06/03 12:34:21;;;;;;;6.50;3.70;;;27.60;53.10;;;;;;5066138;27;20504;-61
2021/06/03 12:36:47;;;;;;;5.87;3.33;;;27.50;52.60;;;;;;5061768;27;20033;-61
2021/06/03 12:39:12;;;;;;;11.53;4.10;;;27.50;51.20;;;;;;5063785;28;20377;-61
2021/06/03 12:41:39;;;;;;;12.30;3.53;;;27.40;52.10;;;;;;5133427;27;20041;-60
2021/06/03 12:44:31;;;;;;;8.17;3.90;;;27.50;52.30;;;;;;5060953;28;20049;-60
2021/06/03 12:47:00;;;;;;;3.97;3.50;;;27.40;51.90;;;;;;5063043;27;20808;-62
2021/06/03 12:49:28;;;;;;;5.17;3.57;;;27.50;51.40;;;;;;5061980;28;20048;-62
2021/06/03 12:51:57;;;;;;;7.53;4.33;;;27.50;51.40;;;;;;5064943;27;20048;-63